Richardson's Hourly Summary for Tuesday, March 14, 2017
Hour Temp
(f)
RH
(%)
Solar Rad.
(MJ/m2)
Rainfall
(in)
Wind
(mph)
3/14/2017 12:00 AM 44 42 0 0 4.22
3/14/2017 1:00 AM 42 46 0 0 3.83
3/14/2017 2:00 AM 40 49 0 0 1.43
3/14/2017 3:00 AM 40 53 0 0 0.79
3/14/2017 4:00 AM 39 53 0 0 1.05
3/14/2017 5:00 AM 38 56 0 0 2.06
3/14/2017 6:00 AM 36 61 0 0 1.01
3/14/2017 7:00 AM 35 64 0 0 0.93
3/14/2017 8:00 AM 35 68 0.04 0 1.05
3/14/2017 9:00 AM 39 56 0.56 0 1.12
3/14/2017 10:00 AM 43 50 1.24 0 3.1
3/14/2017 11:00 AM 46 40 1.92 0 2.69
3/14/2017 12:00 PM 48 38 2.54 0 2.67
3/14/2017 1:00 PM 51 35 2.84 0 2.81
3/14/2017 2:00 PM 54 31 2.96 0 3.2
3/14/2017 3:00 PM 56 28 2.8 0 2.88
3/14/2017 4:00 PM 59 28 2.53 0 4.08
3/14/2017 5:00 PM 60 28 1.97 0 4.01
3/14/2017 6:00 PM 60 29 1.12 0 3.31
3/14/2017 7:00 PM 60 30 0.28 0 2.35
3/14/2017 8:00 PM 57 34 0.03 0 2.38
3/14/2017 9:00 PM 56 38 0 0 1.85
3/14/2017 10:00 PM 54 44 0 0 1.49
3/14/2017 11:00 PM 52 46 0 0 0.71
Data Summary 47 43 20.83 0.00 2.29